createdAt,value
2022-10-22T00:02:02.024Z,5.10
2022-10-22T00:04:34.429Z,5.20
2022-10-22T00:07:04.648Z,4.60
2022-10-22T00:09:32.501Z,4.20
2022-10-22T00:12:01.663Z,4.90
2022-10-22T00:14:29.274Z,4.07
2022-10-22T00:17:00.931Z,4.60
2022-10-22T00:19:28.754Z,5.13
2022-10-22T00:21:58.197Z,3.93
2022-10-22T00:24:27.853Z,3.97
2022-10-22T00:26:55.464Z,4.40
2022-10-22T00:29:23.148Z,2.90
2022-10-22T00:31:51.381Z,4.33
2022-10-22T00:34:20.141Z,4.23
2022-10-22T00:36:48.171Z,3.90
2022-10-22T00:39:17.388Z,3.23
2022-10-22T00:41:48.657Z,3.93
2022-10-22T00:44:53.219Z,4.00
2022-10-22T00:47:22.018Z,3.53
2022-10-22T00:49:50.957Z,3.83
2022-10-22T00:52:18.863Z,4.40
2022-10-22T00:54:46.747Z,4.80
2022-10-22T00:57:17.209Z,4.20
2022-10-22T00:59:44.899Z,4.27
2022-10-22T01:02:12.757Z,4.20
2022-10-22T01:04:41.036Z,4.17
2022-10-22T01:07:16.249Z,3.93
2022-10-22T01:09:50.278Z,3.60
2022-10-22T01:12:27.117Z,4.17
2022-10-22T01:15:08.302Z,5.40
2022-10-22T01:17:43.540Z,4.50
2022-10-22T01:20:27.076Z,3.90
2022-10-22T01:23:05.474Z,3.43
2022-10-22T01:25:36.831Z,3.47
2022-10-22T01:28:17.849Z,4.83
2022-10-22T01:30:49.835Z,3.57
2022-10-22T01:33:22.299Z,2.97
2022-10-22T01:35:51.115Z,3.17
2022-10-22T01:38:22.605Z,3.20
2022-10-22T01:40:52.058Z,3.57
2022-10-22T01:43:20.108Z,3.57
2022-10-22T01:45:52.580Z,3.90
2022-10-22T01:48:32.934Z,3.57
2022-10-22T01:51:14.690Z,4.17
2022-10-22T01:53:51.817Z,3.50
2022-10-22T01:56:36.212Z,3.93
2022-10-22T01:59:08.443Z,3.97
2022-10-22T02:01:45.507Z,3.30
2022-10-22T02:04:18.723Z,3.80
2022-10-22T02:06:48.852Z,3.70
2022-10-22T02:09:18.692Z,4.33
2022-10-22T02:11:47.338Z,4.00
2022-10-22T02:14:18.609Z,4.17
2022-10-22T02:16:49.617Z,3.90
2022-10-22T02:19:25.328Z,4.80
2022-10-22T02:21:53.757Z,3.30
2022-10-22T02:24:23.290Z,3.83
2022-10-22T02:27:00.178Z,4.07
2022-10-22T02:29:31.404Z,3.37
2022-10-22T02:32:04.029Z,4.00
2022-10-22T02:34:33.012Z,4.40
2022-10-22T02:37:03.490Z,4.10
2022-10-22T02:39:33.292Z,3.53
2022-10-22T02:42:02.200Z,3.60
2022-10-22T02:44:29.916Z,3.20
2022-10-22T02:46:57.857Z,4.90
2022-10-22T02:49:26.962Z,4.00
2022-10-22T02:51:54.592Z,3.80
2022-10-22T02:54:22.236Z,3.57
2022-10-22T02:56:49.816Z,3.93
2022-10-22T02:59:17.501Z,4.27
2022-10-22T03:01:45.136Z,5.30
2022-10-22T03:04:12.726Z,4.57
2022-10-22T03:06:43.847Z,3.93
2022-10-22T03:09:12.053Z,4.10
2022-10-22T03:11:39.644Z,4.30
2022-10-22T03:14:07.298Z,4.43
2022-10-22T03:16:34.932Z,5.07
2022-10-22T03:19:02.892Z,4.43
2022-10-22T03:21:34.865Z,3.43
2022-10-22T03:24:09.829Z,4.60
2022-10-22T03:26:39.228Z,5.00
2022-10-22T03:29:06.994Z,4.50
2022-10-22T03:31:35.066Z,3.87
2022-10-22T03:34:02.803Z,4.47
2022-10-22T03:36:30.818Z,4.10
2022-10-22T03:38:58.557Z,4.17
2022-10-22T03:41:28.121Z,3.20
2022-10-22T03:43:57.398Z,4.17
2022-10-22T03:46:25.018Z,3.87
2022-10-22T03:48:52.557Z,3.07
2022-10-22T03:51:20.164Z,4.47
2022-10-22T03:53:47.860Z,3.57
2022-10-22T03:56:15.538Z,3.30
2022-10-22T03:58:44.518Z,3.93
2022-10-22T04:01:14.299Z,4.83
2022-10-22T04:03:42.416Z,3.40
2022-10-22T04:06:13.111Z,4.23
2022-10-22T04:08:42.153Z,3.30
2022-10-22T04:11:10.194Z,3.53
2022-10-22T04:13:38.342Z,3.97
2022-10-22T04:16:11.554Z,3.53
2022-10-22T04:18:40.330Z,3.17
2022-10-22T04:21:09.880Z,3.60
2022-10-22T04:23:38.052Z,3.37
2022-10-22T04:26:07.940Z,3.20
2022-10-22T04:28:36.195Z,2.70
2022-10-22T04:31:10.415Z,2.67
2022-10-22T04:33:38.513Z,2.93
2022-10-22T04:36:08.679Z,3.47
2022-10-22T04:38:36.262Z,2.87
2022-10-22T04:41:11.791Z,2.57
2022-10-22T04:43:39.732Z,2.67
2022-10-22T04:46:09.035Z,3.20
2022-10-22T04:48:38.309Z,2.57
2022-10-22T04:51:07.297Z,3.53
2022-10-22T04:53:35.651Z,3.33
2022-10-22T04:56:11.675Z,3.90
2022-10-22T04:58:39.808Z,2.80
2022-10-22T05:01:12.761Z,3.37
2022-10-22T05:03:42.588Z,3.10
2022-10-22T05:08:38.870Z,2.80
2022-10-22T05:11:12.801Z,2.73
2022-10-22T05:13:40.616Z,3.03
2022-10-22T05:16:08.749Z,3.00
2022-10-22T05:18:37.442Z,2.70
2022-10-22T05:21:10.619Z,2.40
2022-10-22T05:23:38.889Z,3.40
2022-10-22T05:26:08.262Z,3.70
2022-10-22T05:28:36.461Z,3.70
2022-10-22T05:31:05.208Z,2.77
2022-10-22T05:33:34.312Z,3.30
2022-10-22T05:36:03.372Z,3.27
2022-10-22T05:38:32.664Z,2.93
2022-10-22T05:41:01.509Z,2.70
2022-10-22T05:43:29.623Z,4.03
2022-10-22T05:45:57.409Z,3.73
2022-10-22T05:48:25.167Z,2.83
2022-10-22T05:50:52.870Z,4.17
2022-10-22T05:53:20.612Z,5.30
2022-10-22T05:55:49.627Z,3.60
2022-10-22T05:58:17.213Z,3.10
2022-10-22T06:00:44.995Z,3.00
2022-10-22T06:03:12.832Z,3.33
2022-10-22T06:05:40.484Z,3.27
2022-10-22T06:08:08.329Z,3.00
2022-10-22T06:10:36.229Z,3.10
2022-10-22T06:13:08.013Z,3.20
2022-10-22T06:15:36.339Z,3.03
2022-10-22T06:18:04.039Z,3.67
2022-10-22T06:20:31.792Z,3.87
2022-10-22T06:22:59.540Z,2.97
2022-10-22T06:25:27.203Z,3.47
2022-10-22T06:27:54.946Z,3.13
2022-10-22T06:30:23.865Z,3.50
2022-10-22T06:32:51.429Z,4.53
2022-10-22T06:35:19.131Z,4.63
2022-10-22T06:37:47.472Z,4.50
2022-10-22T06:40:16.309Z,4.50
2022-10-22T06:42:44.024Z,4.10
2022-10-22T06:45:12.180Z,4.10
2022-10-22T06:47:41.718Z,5.07
2022-10-22T06:50:10.185Z,5.30
2022-10-22T06:52:37.782Z,4.70
2022-10-22T06:55:06.182Z,4.50
2022-10-22T06:57:33.903Z,4.87
2022-10-22T07:00:01.764Z,5.30
2022-10-22T07:02:29.342Z,5.17
2022-10-22T07:04:58.312Z,4.20
2022-10-22T07:07:25.984Z,5.37
2022-10-22T07:09:53.669Z,5.57
2022-10-22T07:12:21.293Z,5.47
2022-10-22T07:14:50.048Z,5.17
2022-10-22T07:17:17.701Z,4.37
2022-10-22T07:19:48.418Z,4.77
2022-10-22T07:22:20.109Z,3.83
2022-10-22T07:24:47.825Z,5.60
2022-10-22T07:27:15.674Z,5.83
2022-10-22T07:29:43.338Z,4.60
2022-10-22T07:32:11.201Z,4.90
2022-10-22T07:34:40.608Z,6.07
2022-10-22T07:37:11.026Z,6.87
2022-10-22T07:39:40.066Z,5.90
2022-10-22T07:42:07.681Z,6.10
2022-10-22T07:44:35.280Z,5.73
2022-10-22T07:47:02.921Z,5.60
2022-10-22T07:49:30.552Z,5.70
2022-10-22T07:51:58.310Z,5.77
2022-10-22T07:54:26.055Z,5.97
2022-10-22T07:56:55.149Z,6.07
2022-10-22T07:59:22.943Z,6.70
2022-10-22T08:01:50.677Z,6.23
2022-10-22T08:04:18.375Z,6.10
2022-10-22T08:06:47.452Z,5.97
2022-10-22T08:09:15.788Z,6.10
2022-10-22T08:11:43.586Z,6.13
2022-10-22T08:14:12.906Z,6.40
2022-10-22T08:16:41.056Z,5.63
2022-10-22T08:19:08.831Z,5.70
2022-10-22T08:21:36.650Z,6.77
2022-10-22T08:24:04.429Z,6.07
2022-10-22T08:26:32.205Z,7.50
2022-10-22T08:28:59.938Z,5.93
2022-10-22T08:31:28.971Z,6.50
2022-10-22T08:33:56.892Z,6.93
2022-10-22T08:36:24.861Z,6.83
2022-10-22T08:38:52.576Z,6.13
2022-10-22T08:41:23.055Z,6.00
2022-10-22T08:44:23.691Z,6.27
2022-10-22T08:47:10.401Z,6.00
2022-10-22T08:49:42.257Z,5.73
2022-10-22T08:52:14.795Z,5.83
2022-10-22T08:54:50.529Z,6.17
2022-10-22T08:57:29.131Z,6.03
2022-10-22T09:00:02.961Z,6.93
2022-10-22T09:02:42.209Z,6.10
2022-10-22T09:05:23.716Z,5.67
2022-10-22T09:07:53.019Z,5.57
2022-10-22T09:10:25.510Z,6.07
2022-10-22T09:12:53.266Z,5.37
2022-10-22T09:15:21.327Z,6.33
2022-10-22T09:18:03.741Z,5.80
2022-10-22T09:20:45.694Z,5.20
2022-10-22T09:23:26.846Z,5.67
2022-10-22T09:25:55.422Z,5.23
2022-10-22T09:28:23.067Z,6.00
2022-10-22T09:30:50.945Z,5.80
2022-10-22T09:33:26.764Z,5.37
2022-10-22T09:35:57.165Z,5.70
2022-10-22T09:38:27.213Z,5.77
2022-10-22T09:40:57.457Z,5.37
2022-10-22T09:43:25.387Z,5.07
2022-10-22T09:45:58.144Z,5.50
2022-10-22T09:48:34.439Z,4.17
2022-10-22T09:51:07.382Z,4.60
2022-10-22T09:53:40.568Z,4.30
2022-10-22T09:56:11.113Z,4.37
2022-10-22T09:58:46.121Z,4.80
2022-10-22T10:01:19.950Z,5.30
2022-10-22T10:03:49.676Z,3.90
2022-10-22T10:06:20.309Z,5.47
2022-10-22T10:08:48.991Z,3.27
2022-10-22T10:11:28.962Z,3.17
2022-10-22T10:14:08.654Z,4.33
2022-10-22T10:16:49.894Z,4.00
2022-10-22T10:19:31.453Z,3.80
2022-10-22T10:22:09.430Z,3.40
2022-10-22T10:24:57.535Z,4.10
2022-10-22T10:27:31.900Z,3.33
2022-10-22T10:30:04.809Z,3.17
2022-10-22T10:32:53.799Z,3.77
2022-10-22T10:35:27.695Z,4.03
2022-10-22T10:38:10.138Z,3.63
2022-10-22T10:40:46.462Z,3.20
2022-10-22T10:43:21.798Z,4.00
2022-10-22T10:46:02.666Z,2.90
2022-10-22T10:48:41.180Z,3.30
2022-10-22T10:51:20.750Z,3.20
2022-10-22T10:54:01.325Z,2.90
2022-10-22T10:56:39.997Z,3.40
2022-10-22T10:59:33.371Z,3.40
2022-10-22T11:02:17.382Z,3.47
2022-10-22T11:05:06.403Z,3.13
2022-10-22T11:07:41.834Z,3.10
2022-10-22T11:10:28.958Z,3.87
2022-10-22T11:13:03.186Z,3.47
2022-10-22T11:15:34.345Z,3.13
2022-10-22T11:18:12.008Z,3.70
2022-10-22T11:20:49.952Z,2.30
2022-10-22T11:23:26.273Z,3.30
2022-10-22T11:25:53.927Z,2.90
2022-10-22T11:28:26.961Z,3.67
2022-10-22T11:31:00.590Z,3.13
2022-10-22T11:33:33.278Z,4.70
2022-10-22T11:36:04.315Z,3.37
2022-10-22T11:38:35.774Z,3.10
2022-10-22T11:41:07.905Z,2.40
2022-10-22T11:43:52.605Z,3.60
2022-10-22T11:46:34.903Z,3.00
2022-10-22T11:49:06.670Z,3.13
2022-10-22T11:51:37.074Z,3.33
2022-10-22T11:54:30.425Z,3.30
2022-10-22T11:57:18.942Z,3.23
2022-10-22T11:59:51.461Z,2.90
2022-10-22T12:02:43.994Z,2.73
2022-10-22T12:05:35.231Z,2.80
2022-10-22T12:08:21.373Z,3.37
2022-10-22T12:11:01.268Z,3.37
2022-10-22T12:13:32.468Z,3.07
2022-10-22T12:16:03.188Z,2.90
2022-10-22T12:18:36.373Z,2.33
2022-10-22T12:21:04.520Z,2.40
2022-10-22T12:23:35.557Z,3.50
2022-10-22T12:26:06.569Z,2.13
2022-10-22T12:28:40.944Z,2.60
2022-10-22T12:31:17.073Z,2.73
2022-10-22T12:33:45.122Z,2.57
2022-10-22T12:36:17.828Z,2.57
2022-10-22T12:38:48.130Z,2.20
2022-10-22T12:41:17.112Z,3.37
2022-10-22T12:43:45.477Z,2.90
2022-10-22T12:46:16.270Z,2.60
2022-10-22T12:48:47.165Z,3.17
2022-10-22T12:51:19.835Z,2.80
2022-10-22T12:53:49.685Z,3.37
2022-10-22T12:56:23.283Z,2.43
2022-10-22T12:58:54.545Z,3.00
2022-10-22T13:01:22.303Z,3.20
2022-10-22T13:03:52.009Z,4.10
2022-10-22T13:06:26.939Z,2.83
2022-10-22T13:09:04.328Z,3.20
2022-10-22T13:11:35.555Z,3.37
2022-10-22T13:14:04.470Z,3.53
2022-10-22T13:16:33.135Z,3.20
2022-10-22T13:19:01.097Z,3.03
2022-10-22T13:21:34.118Z,2.70
2022-10-22T13:24:03.289Z,2.47
2022-10-22T13:26:35.318Z,3.83
2022-10-22T13:29:10.325Z,3.63
2022-10-22T13:31:38.535Z,3.60
2022-10-22T13:34:11.792Z,3.50
2022-10-22T13:36:41.568Z,2.70
2022-10-22T13:39:17.187Z,2.53
2022-10-22T13:41:46.119Z,4.73
2022-10-22T13:44:13.812Z,3.30
2022-10-22T13:46:42.865Z,2.87
2022-10-22T13:49:16.281Z,3.50
2022-10-22T13:51:44.887Z,4.57
2022-10-22T13:54:17.469Z,3.00
2022-10-22T13:56:46.728Z,2.97
2022-10-22T13:59:17.232Z,2.97
2022-10-22T14:01:47.729Z,3.87
2022-10-22T14:04:15.860Z,2.67
2022-10-22T14:06:43.800Z,4.70
2022-10-22T14:09:16.332Z,3.13
2022-10-22T14:11:44.038Z,3.23
2022-10-22T14:14:17.001Z,4.03
2022-10-22T14:16:44.687Z,3.30
2022-10-22T14:19:17.433Z,2.57
2022-10-22T14:21:45.099Z,3.63
2022-10-22T14:24:13.453Z,3.17
2022-10-22T14:26:42.226Z,2.87
2022-10-22T14:29:11.048Z,2.47
2022-10-22T14:31:42.390Z,1.80
2022-10-22T14:34:12.049Z,1.97
2022-10-22T14:36:39.715Z,2.13
2022-10-22T14:39:07.342Z,2.57
2022-10-22T14:41:35.194Z,2.57
2022-10-22T14:44:03.147Z,2.20
2022-10-22T14:46:30.913Z,2.30
2022-10-22T14:48:59.996Z,2.60
2022-10-22T14:51:27.719Z,2.93
2022-10-22T14:53:55.356Z,3.83
2022-10-22T14:56:23.010Z,2.90
2022-10-22T14:58:51.414Z,3.00
2022-10-22T15:01:19.105Z,4.07
2022-10-22T15:03:46.806Z,2.90
2022-10-22T15:06:15.796Z,2.53
2022-10-22T15:08:43.494Z,2.87
2022-10-22T15:11:13.342Z,3.10
2022-10-22T15:13:42.360Z,2.53
2022-10-22T15:16:11.845Z,3.77
2022-10-22T15:18:39.597Z,4.20
2022-10-22T15:21:09.038Z,2.50
2022-10-22T15:23:40.606Z,2.60
2022-10-22T15:26:08.763Z,3.20
2022-10-22T15:28:37.144Z,3.67
2022-10-22T15:31:05.116Z,2.93
2022-10-22T15:33:33.179Z,2.77
2022-10-22T15:36:11.104Z,3.00
2022-10-22T15:38:40.210Z,3.30
2022-10-22T15:41:09.987Z,2.43
2022-10-22T15:43:38.051Z,2.50
2022-10-22T15:46:13.591Z,2.63
2022-10-22T15:48:41.751Z,2.00
2022-10-22T15:51:11.499Z,2.43
2022-10-22T15:53:41.422Z,2.77
2022-10-22T15:56:12.696Z,3.30
2022-10-22T15:58:40.334Z,3.00
2022-10-22T16:01:10.598Z,2.80
2022-10-22T16:03:38.709Z,2.90
2022-10-22T16:06:09.577Z,2.73
2022-10-22T16:08:38.624Z,2.77
2022-10-22T16:11:08.882Z,2.80
2022-10-22T16:13:37.263Z,3.85
2022-10-22T16:16:06.950Z,3.47
2022-10-22T16:18:35.160Z,2.50
2022-10-22T16:21:05.729Z,2.90
2022-10-22T16:23:33.344Z,2.37
2022-10-22T16:26:02.646Z,3.90
2022-10-22T16:28:32.020Z,2.67
2022-10-22T16:31:04.865Z,2.57
2022-10-22T16:33:41.391Z,3.00
2022-10-22T16:36:13.360Z,3.10
2022-10-22T16:38:41.182Z,3.27
2022-10-22T16:41:10.669Z,2.70
2022-10-22T16:43:39.969Z,2.63
2022-10-22T16:46:08.525Z,2.80
2022-10-22T16:48:37.907Z,2.63
2022-10-22T16:51:10.431Z,3.00
2022-10-22T16:53:38.290Z,3.10
2022-10-22T16:56:09.484Z,3.60
2022-10-22T16:58:37.332Z,2.53
2022-10-22T17:01:08.782Z,4.00
2022-10-22T17:03:36.470Z,3.50
2022-10-22T17:06:04.674Z,4.07
2022-10-22T17:08:32.990Z,2.77
2022-10-22T17:11:06.746Z,2.93
2022-10-22T17:13:34.456Z,3.07
2022-10-22T17:16:03.030Z,2.87
2022-10-22T17:18:32.649Z,2.60
2022-10-22T17:21:00.217Z,2.97
2022-10-22T17:23:28.477Z,2.40
2022-10-22T17:25:59.545Z,2.50
2022-10-22T17:28:28.952Z,3.20
2022-10-22T17:31:04.539Z,2.47
2022-10-22T17:33:34.161Z,3.33
2022-10-22T17:36:02.046Z,3.10
2022-10-22T17:38:29.766Z,2.83
2022-10-22T17:40:59.871Z,3.40
2022-10-22T17:43:29.271Z,3.43
2022-10-22T17:46:04.716Z,2.70
2022-10-22T17:48:33.842Z,3.23
2022-10-22T17:51:01.567Z,2.70
2022-10-22T17:53:29.213Z,2.97
2022-10-22T17:56:01.476Z,2.40
2022-10-22T17:58:30.731Z,2.77
2022-10-22T18:00:58.640Z,3.03
2022-10-22T18:03:27.821Z,3.30
2022-10-22T18:05:56.990Z,2.73
2022-10-22T18:08:25.491Z,3.43
2022-10-22T18:10:53.066Z,3.13
2022-10-22T18:13:20.863Z,7.47
2022-10-22T18:15:55.369Z,7.03
2022-10-22T18:18:23.400Z,6.10
2022-10-22T18:20:51.081Z,4.83
2022-10-22T18:23:20.817Z,4.70
2022-10-22T18:25:48.770Z,3.50
2022-10-22T18:28:17.751Z,3.60
2022-10-22T18:30:46.220Z,3.30
2022-10-22T18:33:15.394Z,3.20
2022-10-22T18:35:43.184Z,3.20
2022-10-22T18:38:11.194Z,3.63
2022-10-22T18:40:46.087Z,3.10
2022-10-22T18:43:13.803Z,3.40
2022-10-22T18:45:42.867Z,4.57
2022-10-22T18:48:10.511Z,4.30
2022-10-22T18:50:38.058Z,3.37
2022-10-22T18:53:05.644Z,2.80
2022-10-22T18:55:34.457Z,3.00
2022-10-22T18:58:03.688Z,2.97
2022-10-22T19:00:31.730Z,3.00
2022-10-22T19:02:59.452Z,3.10
2022-10-22T19:05:27.123Z,3.97
2022-10-22T19:07:54.755Z,3.00
2022-10-22T19:10:22.301Z,3.07
2022-10-22T19:12:49.877Z,3.17
2022-10-22T19:15:19.033Z,3.07
2022-10-22T19:17:46.660Z,3.13
2022-10-22T19:20:14.262Z,2.83
2022-10-22T19:22:41.878Z,4.00
2022-10-22T19:25:12.039Z,2.80
2022-10-22T19:27:40.752Z,2.40
2022-10-22T19:30:09.466Z,2.47
2022-10-22T19:32:38.376Z,3.57
2022-10-22T19:35:06.481Z,4.13
2022-10-22T19:37:34.888Z,3.57
2022-10-22T19:40:02.725Z,3.10
2022-10-22T19:42:30.358Z,3.60
2022-10-22T19:44:58.465Z,3.63
2022-10-22T19:47:26.313Z,2.73
2022-10-22T19:49:55.370Z,3.63
2022-10-22T19:52:23.507Z,3.57
2022-10-22T19:54:51.101Z,3.27
2022-10-22T19:57:19.479Z,3.27
2022-10-22T19:59:47.180Z,3.03
2022-10-22T20:02:17.002Z,2.97
2022-10-22T20:04:49.143Z,5.30
2022-10-22T20:07:18.986Z,2.93
2022-10-22T20:09:46.563Z,3.43
2022-10-22T20:12:14.166Z,2.93
2022-10-22T20:14:42.009Z,2.70
2022-10-22T20:17:09.530Z,2.87
2022-10-22T20:19:37.168Z,2.77
2022-10-22T20:22:05.115Z,2.80
2022-10-22T20:24:34.891Z,2.67
2022-10-22T20:27:02.468Z,3.00
2022-10-22T20:29:30.122Z,3.40
2022-10-22T20:31:57.709Z,2.90
2022-10-22T20:34:25.351Z,2.73
2022-10-22T20:36:52.937Z,2.83
2022-10-22T20:39:20.557Z,2.67
2022-10-22T20:41:50.710Z,2.50
2022-10-22T20:44:19.131Z,3.00
2022-10-22T20:46:46.880Z,3.20
2022-10-22T20:49:16.677Z,2.93
2022-10-22T20:51:45.286Z,3.80
2022-10-22T20:54:14.637Z,3.60
2022-10-22T20:56:42.839Z,3.00
2022-10-22T20:59:12.801Z,3.50
2022-10-22T21:01:42.534Z,3.37
2022-10-22T21:04:10.685Z,3.70
2022-10-22T21:06:40.190Z,4.00
2022-10-22T21:09:08.711Z,2.90
2022-10-22T21:11:37.591Z,2.80
2022-10-22T21:14:06.271Z,3.23
2022-10-22T21:16:35.333Z,2.87
2022-10-22T21:19:03.358Z,2.40
2022-10-22T21:21:31.018Z,2.90
2022-10-22T21:23:58.699Z,2.67
2022-10-22T21:26:26.380Z,3.17
2022-10-22T21:28:54.004Z,2.47
2022-10-22T21:31:24.103Z,3.17
2022-10-22T21:33:53.810Z,3.00
2022-10-22T21:36:23.571Z,2.50
2022-10-22T21:38:51.622Z,3.47
2022-10-22T21:41:21.711Z,3.27
2022-10-22T21:43:49.763Z,3.00
2022-10-22T21:46:19.498Z,3.10
2022-10-22T21:48:47.250Z,2.97
2022-10-22T21:51:18.970Z,3.27
2022-10-22T21:53:47.444Z,3.10
2022-10-22T21:56:16.332Z,2.83
2022-10-22T21:58:44.227Z,2.60
2022-10-22T22:01:12.140Z,2.80
2022-10-22T22:03:41.792Z,3.07
2022-10-22T22:06:09.423Z,3.03
2022-10-22T22:08:38.419Z,2.30
2022-10-22T22:11:08.288Z,3.57
2022-10-22T22:13:36.799Z,3.30
2022-10-22T22:16:07.499Z,2.78
2022-10-22T22:18:36.410Z,2.60
2022-10-22T22:21:05.764Z,2.80
2022-10-22T22:23:33.823Z,2.53
2022-10-22T22:26:02.860Z,2.47
2022-10-22T22:28:31.597Z,2.60
2022-10-22T22:30:59.901Z,3.67
2022-10-22T22:33:28.448Z,3.77
2022-10-22T22:35:59.904Z,2.07
2022-10-22T22:38:27.574Z,2.57
2022-10-22T22:40:55.135Z,2.17
2022-10-22T22:43:24.110Z,2.73
2022-10-22T22:45:59.869Z,3.37
2022-10-22T22:48:28.371Z,2.53
2022-10-22T22:50:55.962Z,2.83
2022-10-22T22:53:23.915Z,2.57
2022-10-22T22:55:51.662Z,2.50
2022-10-22T22:58:19.349Z,2.60
2022-10-22T23:00:48.343Z,2.47
2022-10-22T23:03:16.032Z,2.23
2022-10-22T23:05:43.658Z,2.30
2022-10-22T23:08:11.185Z,2.60
2022-10-22T23:10:38.941Z,2.43
2022-10-22T23:13:06.501Z,2.10
2022-10-22T23:15:34.171Z,3.20
2022-10-22T23:18:03.162Z,2.50
2022-10-22T23:20:30.949Z,2.77
2022-10-22T23:22:58.600Z,2.47
2022-10-22T23:25:26.181Z,2.80
2022-10-22T23:27:53.743Z,3.20
2022-10-22T23:30:21.466Z,2.07
2022-10-22T23:32:49.018Z,3.03
2022-10-22T23:35:18.031Z,2.70
2022-10-22T23:37:45.716Z,2.67
2022-10-22T23:40:13.304Z,2.63
2022-10-22T23:42:44.038Z,2.33
2022-10-22T23:45:12.000Z,2.57
2022-10-22T23:47:39.859Z,2.47
2022-10-22T23:50:09.122Z,2.30
2022-10-22T23:52:38.412Z,3.07
2022-10-22T23:55:07.265Z,2.90
2022-10-22T23:57:34.980Z,2.50
